createdAt,value
2023-03-30T00:01:12.216Z,6.40
2023-03-30T00:03:44.910Z,9.10
2023-03-30T00:06:15.446Z,12.50
2023-03-30T00:08:43.532Z,11.20
2023-03-30T00:11:13.770Z,6.80
2023-03-30T00:13:44.858Z,8.70
2023-03-30T00:16:13.710Z,7.80
2023-03-30T00:18:41.854Z,12.30
2023-03-30T00:21:18.482Z,8.80
2023-03-30T00:23:48.213Z,7.30
2023-03-30T00:26:16.789Z,7.10
2023-03-30T00:28:45.499Z,11.10
2023-03-30T00:31:14.253Z,6.80
2023-03-30T00:33:47.183Z,7.00
2023-03-30T00:36:17.730Z,7.00
2023-03-30T00:38:48.555Z,10.20
2023-03-30T00:41:17.873Z,8.60
2023-03-30T00:43:57.665Z,9.20
2023-03-30T00:46:26.468Z,8.10
2023-03-30T00:48:58.940Z,9.60
2023-03-30T00:51:29.160Z,9.30
2023-03-30T00:54:04.719Z,8.00
2023-03-30T00:56:33.324Z,8.00
2023-03-30T00:59:01.457Z,6.90
2023-03-30T01:01:30.668Z,6.80
2023-03-30T01:04:02.416Z,9.90
2023-03-30T01:06:31.966Z,9.00
2023-03-30T01:09:00.722Z,6.40
2023-03-30T01:11:34.449Z,9.50
2023-03-30T01:14:06.141Z,8.00
2023-03-30T01:16:45.450Z,7.60
2023-03-30T01:19:32.940Z,6.90
2023-03-30T01:22:23.571Z,8.10
2023-03-30T01:25:03.744Z,7.90
2023-03-30T01:28:02.701Z,9.10
2023-03-30T01:31:08.794Z,10.40
2023-03-30T01:33:41.259Z,11.30
2023-03-30T01:36:13.146Z,16.50
2023-03-30T01:39:07.134Z,26.60
2023-03-30T01:42:07.484Z,34.20
2023-03-30T01:44:44.978Z,22.70
2023-03-30T01:47:40.474Z,20.40
2023-03-30T01:50:13.998Z,12.10
2023-03-30T01:53:01.896Z,11.70
2023-03-30T01:55:42.052Z,9.00
2023-03-30T01:58:16.122Z,14.20
2023-03-30T02:00:47.411Z,14.30
2023-03-30T02:03:19.385Z,7.90
2023-03-30T02:05:51.148Z,7.80
2023-03-30T02:08:25.132Z,7.00
2023-03-30T02:10:53.662Z,8.30
2023-03-30T02:13:21.751Z,7.60
2023-03-30T02:15:55.624Z,13.80
2023-03-30T02:18:25.598Z,9.30
2023-03-30T02:20:53.995Z,8.70
2023-03-30T02:23:28.597Z,9.30
2023-03-30T02:25:57.094Z,9.60
2023-03-30T02:28:25.796Z,12.60
2023-03-30T02:30:55.688Z,10.90
2023-03-30T02:34:03.504Z,11.80
2023-03-30T02:37:07.645Z,13.30
2023-03-30T02:39:42.566Z,14.40
2023-03-30T02:42:37.138Z,7.10
2023-03-30T02:45:10.167Z,11.20
2023-03-30T02:47:44.193Z,9.00
2023-03-30T02:50:12.782Z,9.90
2023-03-30T02:52:55.643Z,9.50
2023-03-30T02:55:34.781Z,8.60
2023-03-30T02:58:37.328Z,10.60
2023-03-30T03:01:18.161Z,12.30
2023-03-30T03:03:58.330Z,12.50
2023-03-30T03:06:27.089Z,8.50
2023-03-30T03:08:57.575Z,13.10
2023-03-30T03:11:28.263Z,9.00
2023-03-30T03:13:57.185Z,13.50
2023-03-30T03:16:26.986Z,8.10
2023-03-30T03:19:14.818Z,13.10
2023-03-30T03:21:46.117Z,11.10
2023-03-30T03:24:17.551Z,9.60
2023-03-30T03:27:19.740Z,9.10
2023-03-30T03:30:17.756Z,12.90
2023-03-30T03:32:51.748Z,9.50
2023-03-30T03:35:20.314Z,8.90
2023-03-30T03:37:49.553Z,9.40
2023-03-30T03:40:19.368Z,9.00
2023-03-30T03:42:47.517Z,10.80
2023-03-30T03:45:19.254Z,11.80
2023-03-30T03:47:56.357Z,8.70
2023-03-30T03:50:38.340Z,9.60
2023-03-30T03:53:09.176Z,10.50
2023-03-30T03:55:38.095Z,8.90
2023-03-30T03:58:07.486Z,8.10
2023-03-30T04:00:36.965Z,10.00
2023-03-30T04:03:09.320Z,11.40
2023-03-30T04:05:43.334Z,7.50
2023-03-30T04:08:12.014Z,9.20
2023-03-30T04:10:41.480Z,10.20
2023-03-30T04:13:28.799Z,12.40
2023-03-30T04:16:17.324Z,11.60
2023-03-30T04:19:09.187Z,12.60
2023-03-30T04:21:59.133Z,8.90
2023-03-30T04:25:00.166Z,9.80
2023-03-30T04:27:51.295Z,10.00
2023-03-30T04:30:41.009Z,11.30
2023-03-30T04:33:35.194Z,11.80
2023-03-30T04:36:23.414Z,15.80
2023-03-30T04:39:11.213Z,20.80
2023-03-30T04:42:07.867Z,22.40
2023-03-30T04:44:47.238Z,22.20
2023-03-30T04:47:38.072Z,28.30
2023-03-30T04:50:24.996Z,27.80
2023-03-30T04:53:11.860Z,20.60
2023-03-30T04:56:02.865Z,19.70
2023-03-30T04:58:40.248Z,13.20
2023-03-30T05:01:28.756Z,13.60
2023-03-30T05:04:00.143Z,27.00
2023-03-30T05:06:49.907Z,20.20
2023-03-30T05:09:24.360Z,18.40
2023-03-30T05:12:14.893Z,10.80
2023-03-30T05:14:53.959Z,11.50
2023-03-30T05:17:38.879Z,13.30
2023-03-30T05:20:42.572Z,15.70
2023-03-30T05:23:31.152Z,11.40
2023-03-30T05:26:24.094Z,8.60
2023-03-30T05:29:18.617Z,11.60
2023-03-30T05:32:05.706Z,15.20
2023-03-30T05:34:52.571Z,12.20
2023-03-30T05:37:40.077Z,13.00
2023-03-30T05:40:27.262Z,11.80
2023-03-30T05:43:15.766Z,7.80
2023-03-30T05:46:07.599Z,10.90
2023-03-30T05:48:50.270Z,14.80
2023-03-30T05:51:37.144Z,11.30
2023-03-30T05:54:12.880Z,11.40
2023-03-30T05:57:01.492Z,7.60
2023-03-30T05:59:37.294Z,12.60
2023-03-30T06:02:25.433Z,12.70
2023-03-30T06:04:58.199Z,14.10
2023-03-30T06:07:26.307Z,10.80
2023-03-30T06:09:55.014Z,11.90
2023-03-30T06:12:26.787Z,11.70
2023-03-30T06:14:55.493Z,14.70
2023-03-30T06:17:32.704Z,10.30
2023-03-30T06:20:01.275Z,12.40
2023-03-30T06:22:35.695Z,9.60
2023-03-30T06:25:09.092Z,7.10
2023-03-30T06:27:37.512Z,9.80
2023-03-30T06:30:06.938Z,10.90
2023-03-30T06:32:42.386Z,10.60
2023-03-30T06:35:16.428Z,7.70
2023-03-30T06:37:45.042Z,9.10
2023-03-30T06:40:14.135Z,10.30
2023-03-30T06:42:44.918Z,8.60
2023-03-30T06:45:31.736Z,9.20
2023-03-30T06:48:00.795Z,8.50
2023-03-30T06:50:29.266Z,11.40
2023-03-30T06:53:05.984Z,7.10
2023-03-30T06:55:42.251Z,9.80
2023-03-30T06:58:27.395Z,6.40
2023-03-30T07:01:20.828Z,9.90
2023-03-30T07:03:58.184Z,6.70
2023-03-30T07:06:44.024Z,5.30
2023-03-30T07:09:13.216Z,5.10
2023-03-30T07:11:45.296Z,5.00
2023-03-30T07:14:14.854Z,10.10
2023-03-30T07:16:43.652Z,8.90
2023-03-30T07:19:11.873Z,8.70
2023-03-30T07:21:41.807Z,5.90
2023-03-30T07:24:12.920Z,7.20
2023-03-30T07:26:42.574Z,6.50
2023-03-30T07:29:11.280Z,5.60
2023-03-30T07:31:41.655Z,9.50
2023-03-30T07:34:12.226Z,5.90
2023-03-30T07:36:44.473Z,5.60
2023-03-30T07:39:17.021Z,7.90
2023-03-30T07:41:46.184Z,6.80
2023-03-30T07:44:14.922Z,6.70
2023-03-30T07:46:45.166Z,7.70
2023-03-30T07:49:18.915Z,7.90
2023-03-30T07:51:53.712Z,7.80
2023-03-30T07:54:28.810Z,9.60
2023-03-30T07:57:05.315Z,5.20
2023-03-30T07:59:34.021Z,7.20
2023-03-30T08:02:27.318Z,4.90
2023-03-30T08:04:56.451Z,8.00
2023-03-30T08:07:35.223Z,4.20
2023-03-30T08:10:10.469Z,6.00
2023-03-30T08:12:40.180Z,9.50
2023-03-30T08:15:09.644Z,5.20
2023-03-30T08:17:37.895Z,11.50
2023-03-30T08:20:11.780Z,8.90
2023-03-30T08:22:41.719Z,9.10
2023-03-30T08:25:10.016Z,13.00
2023-03-30T08:27:39.394Z,8.50
2023-03-30T08:30:08.369Z,7.60
2023-03-30T08:32:37.188Z,8.00
2023-03-30T08:35:06.163Z,5.90
2023-03-30T08:37:35.005Z,14.30
2023-03-30T08:40:11.644Z,4.10
2023-03-30T08:42:45.279Z,7.00
2023-03-30T08:45:16.599Z,6.60
2023-03-30T08:47:49.103Z,7.10
2023-03-30T08:50:19.272Z,5.40
2023-03-30T08:52:47.351Z,4.90
2023-03-30T08:55:31.989Z,5.40
2023-03-30T08:58:22.744Z,6.10
2023-03-30T09:00:57.224Z,7.00
2023-03-30T09:03:49.150Z,8.20
2023-03-30T09:06:27.854Z,6.70
2023-03-30T09:08:56.501Z,7.90
2023-03-30T09:11:30.640Z,8.30
2023-03-30T09:14:03.157Z,7.40
2023-03-30T09:16:46.476Z,7.90
2023-03-30T09:19:20.656Z,6.60
2023-03-30T09:21:49.301Z,6.70
2023-03-30T09:24:21.720Z,6.30
2023-03-30T09:26:53.192Z,5.10
2023-03-30T09:29:26.675Z,4.10
2023-03-30T09:32:03.707Z,8.10
2023-03-30T09:34:46.883Z,7.10
2023-03-30T09:37:18.868Z,7.90
2023-03-30T09:39:48.198Z,5.90
2023-03-30T09:42:39.389Z,6.70
2023-03-30T09:45:17.680Z,11.40
2023-03-30T09:47:46.972Z,5.20
2023-03-30T09:50:24.270Z,5.80
2023-03-30T09:53:03.657Z,7.50
2023-03-30T09:55:32.636Z,8.60
2023-03-30T09:58:21.450Z,8.40
2023-03-30T10:01:07.187Z,8.60
2023-03-30T10:03:37.343Z,6.90
2023-03-30T10:06:13.042Z,6.80
2023-03-30T10:08:51.700Z,5.80
2023-03-30T10:11:41.881Z,3.80
2023-03-30T10:14:27.585Z,5.60
2023-03-30T10:16:58.084Z,5.20
2023-03-30T10:19:29.357Z,4.80
2023-03-30T10:21:58.989Z,4.20
2023-03-30T10:24:33.346Z,5.50
2023-03-30T10:27:14.382Z,4.40
2023-03-30T10:32:20.955Z,5.50
2023-03-30T10:34:52.385Z,4.40
2023-03-30T10:37:28.138Z,3.40
2023-03-30T10:39:56.908Z,7.10
2023-03-30T10:42:26.407Z,5.90
2023-03-30T10:44:58.364Z,5.70
2023-03-30T10:47:33.018Z,5.70
2023-03-30T10:50:08.082Z,4.20
2023-03-30T10:53:04.537Z,7.90
2023-03-30T10:55:44.389Z,5.10
2023-03-30T10:58:43.861Z,6.30
2023-03-30T11:01:22.276Z,5.30
2023-03-30T11:03:54.860Z,7.50
2023-03-30T11:06:28.036Z,4.70
2023-03-30T11:09:02.344Z,5.60
2023-03-30T11:11:36.822Z,3.80
2023-03-30T11:14:26.181Z,4.80
2023-03-30T11:17:15.882Z,3.30
2023-03-30T11:19:56.634Z,3.30
2023-03-30T11:22:54.841Z,2.70
2023-03-30T11:25:30.172Z,4.00
2023-03-30T11:28:05.129Z,2.90
2023-03-30T11:30:33.932Z,3.90
2023-03-30T11:33:08.719Z,5.00
2023-03-30T11:36:02.269Z,5.60
2023-03-30T11:38:42.314Z,5.10
2023-03-30T11:41:13.997Z,5.00
2023-03-30T11:43:45.660Z,4.50
2023-03-30T11:46:27.964Z,4.60
2023-03-30T11:49:11.370Z,5.00
2023-03-30T11:52:05.766Z,2.50
2023-03-30T11:55:03.052Z,3.00
2023-03-30T11:57:38.793Z,1.90
2023-03-30T12:00:29.432Z,4.00
2023-03-30T12:03:25.982Z,5.60
2023-03-30T12:06:06.632Z,5.50
2023-03-30T12:08:55.852Z,5.50
2023-03-30T12:11:27.573Z,5.60
2023-03-30T12:13:55.959Z,4.70
2023-03-30T12:16:47.006Z,5.10
2023-03-30T12:19:15.632Z,4.80
2023-03-30T12:21:55.899Z,2.80
2023-03-30T12:24:34.011Z,6.70
2023-03-30T12:27:05.822Z,4.00
2023-03-30T12:32:29.674Z,6.30
2023-03-30T12:34:58.640Z,6.20
2023-03-30T12:37:28.575Z,5.40
2023-03-30T12:40:00.301Z,5.60
2023-03-30T12:42:35.923Z,4.60
2023-03-30T12:45:29.196Z,5.00
2023-03-30T12:48:07.562Z,4.80
2023-03-30T12:50:49.492Z,3.90
2023-03-30T12:53:59.315Z,4.80
2023-03-30T12:56:31.616Z,2.40
2023-03-30T12:59:23.040Z,5.20
2023-03-30T13:01:54.693Z,8.60
2023-03-30T13:04:25.342Z,4.70
2023-03-30T13:06:58.169Z,6.20
2023-03-30T13:09:26.384Z,5.90
2023-03-30T13:11:54.606Z,8.00
2023-03-30T13:14:27.738Z,5.10
2023-03-30T13:16:56.335Z,7.60
2023-03-30T13:19:32.219Z,5.40
2023-03-30T13:22:11.208Z,3.40
2023-03-30T13:24:42.403Z,5.40
2023-03-30T13:27:19.505Z,10.50
2023-03-30T13:29:56.833Z,5.80
2023-03-30T13:32:53.975Z,7.80
2023-03-30T13:35:28.586Z,6.70
2023-03-30T13:38:16.982Z,4.80
2023-03-30T13:41:04.687Z,6.30
2023-03-30T13:43:43.021Z,5.10
2023-03-30T13:47:01.417Z,4.20
2023-03-30T13:49:32.691Z,6.50
2023-03-30T13:52:06.555Z,6.30
2023-03-30T13:54:35.010Z,5.10
2023-03-30T13:57:09.749Z,6.80
2023-03-30T13:59:43.042Z,3.90
2023-03-30T14:02:17.045Z,5.80
2023-03-30T14:04:51.136Z,4.80
2023-03-30T14:07:21.303Z,7.30
2023-03-30T14:10:12.779Z,5.30
2023-03-30T14:12:42.736Z,5.70
2023-03-30T14:15:20.058Z,6.10
2023-03-30T14:17:50.242Z,4.40
2023-03-30T14:20:44.609Z,5.70
2023-03-30T14:23:16.701Z,3.60
2023-03-30T14:25:45.611Z,6.00
2023-03-30T14:28:16.964Z,8.60
2023-03-30T14:30:58.911Z,4.50
2023-03-30T14:33:27.357Z,5.20
2023-03-30T14:35:57.439Z,6.50
2023-03-30T14:38:38.468Z,7.40
2023-03-30T14:41:09.414Z,8.40
2023-03-30T14:43:40.602Z,5.30
2023-03-30T14:46:11.843Z,6.80
2023-03-30T14:48:41.951Z,9.20
2023-03-30T14:51:27.792Z,7.20
2023-03-30T14:53:56.070Z,4.60
2023-03-30T14:56:28.700Z,6.60
2023-03-30T14:58:56.890Z,6.50
2023-03-30T15:01:31.414Z,6.70
2023-03-30T15:04:05.997Z,7.20
2023-03-30T15:06:35.943Z,7.40
2023-03-30T15:09:17.126Z,6.90
2023-03-30T15:11:46.684Z,5.30
2023-03-30T15:14:18.831Z,14.00
2023-03-30T15:16:50.537Z,8.10
2023-03-30T15:19:34.576Z,6.70
2023-03-30T15:22:05.122Z,7.40
2023-03-30T15:24:34.839Z,4.50
2023-03-30T15:27:05.902Z,5.00
2023-03-30T15:29:34.002Z,6.80
2023-03-30T15:32:18.352Z,5.60
2023-03-30T15:35:07.314Z,12.20
2023-03-30T15:37:36.663Z,7.80
2023-03-30T15:40:31.830Z,9.50
2023-03-30T15:43:19.487Z,11.80
2023-03-30T15:45:52.846Z,14.80
2023-03-30T15:48:28.262Z,6.00
2023-03-30T15:51:04.763Z,9.30
2023-03-30T15:53:55.195Z,13.70
2023-03-30T15:57:18.389Z,13.70
2023-03-30T15:59:51.001Z,17.20
2023-03-30T16:02:41.389Z,16.50
2023-03-30T16:05:20.059Z,13.90
2023-03-30T16:07:48.771Z,15.70
2023-03-30T16:10:26.753Z,15.40
2023-03-30T16:12:59.514Z,20.10
2023-03-30T16:15:29.882Z,13.80
2023-03-30T16:17:58.942Z,16.30
2023-03-30T16:20:31.472Z,14.80
2023-03-30T16:22:59.639Z,19.20
2023-03-30T16:25:37.816Z,22.00
2023-03-30T16:28:16.441Z,22.60
2023-03-30T16:30:47.238Z,23.20
2023-03-30T16:33:17.567Z,14.30
2023-03-30T16:35:46.744Z,19.90
2023-03-30T16:38:17.827Z,17.60
2023-03-30T16:40:53.800Z,14.60
2023-03-30T16:43:22.084Z,15.80
2023-03-30T16:45:51.532Z,19.30
2023-03-30T16:48:24.491Z,19.80
2023-03-30T16:50:53.958Z,21.00
2023-03-30T16:53:22.138Z,29.00
2023-03-30T16:55:50.302Z,25.70
2023-03-30T16:58:26.515Z,26.50
2023-03-30T17:01:02.995Z,28.40
2023-03-30T17:03:32.466Z,31.80
2023-03-30T17:06:00.777Z,34.70
2023-03-30T17:08:29.876Z,32.90
2023-03-30T17:11:03.707Z,30.10
2023-03-30T17:13:37.465Z,29.50
2023-03-30T17:16:27.541Z,26.20
2023-03-30T17:19:01.133Z,42.30
2023-03-30T17:21:29.982Z,30.10
2023-03-30T17:23:58.286Z,35.20
2023-03-30T17:26:28.711Z,33.10
2023-03-30T17:28:57.727Z,34.50
2023-03-30T17:31:27.913Z,32.10
2023-03-30T17:33:57.620Z,33.40
2023-03-30T17:36:26.778Z,45.60
2023-03-30T17:39:00.091Z,36.50
2023-03-30T17:41:28.168Z,45.20
2023-03-30T17:43:56.214Z,58.80
2023-03-30T17:46:24.345Z,67.90
2023-03-30T17:48:52.487Z,142.40
2023-03-30T17:51:20.810Z,93.30
2023-03-30T17:53:49.252Z,58.20
2023-03-30T17:56:22.664Z,54.80
2023-03-30T17:58:53.272Z,56.20
2023-03-30T18:01:21.504Z,41.90
2023-03-30T18:03:49.889Z,41.50
2023-03-30T18:06:18.373Z,41.50
2023-03-30T18:08:58.149Z,45.70
2023-03-30T18:11:30.006Z,46.70
2023-03-30T18:14:02.114Z,43.80
2023-03-30T18:16:30.382Z,43.30
2023-03-30T18:18:59.493Z,47.30
2023-03-30T18:21:27.929Z,47.90
2023-03-30T18:23:57.102Z,46.70
2023-03-30T18:26:26.298Z,44.80
2023-03-30T18:28:54.356Z,42.90
2023-03-30T18:31:23.325Z,48.50
2023-03-30T18:33:53.390Z,56.60
2023-03-30T18:36:21.898Z,48.30
2023-03-30T18:38:50.551Z,34.70
2023-03-30T18:41:18.628Z,39.70
2023-03-30T18:43:47.580Z,38.80
2023-03-30T18:46:15.724Z,43.60
2023-03-30T18:48:44.510Z,47.00
2023-03-30T18:51:12.988Z,42.20
2023-03-30T18:53:42.681Z,38.70
2023-03-30T18:56:12.170Z,54.60
2023-03-30T18:58:43.894Z,43.80
2023-03-30T19:01:15.987Z,33.10
2023-03-30T19:03:45.352Z,46.10
2023-03-30T19:06:19.858Z,40.60
2023-03-30T19:08:50.086Z,38.10
2023-03-30T19:11:23.403Z,36.60
2023-03-30T19:13:51.834Z,38.20
2023-03-30T19:16:21.119Z,56.70
2023-03-30T19:18:50.818Z,117.90
2023-03-30T19:21:18.954Z,38.60
2023-03-30T19:23:47.532Z,34.00
2023-03-30T19:26:15.774Z,46.80
2023-03-30T19:28:44.044Z,208.60
2023-03-30T19:31:15.990Z,176.20
2023-03-30T19:33:44.204Z,78.60
2023-03-30T19:36:14.233Z,96.20
2023-03-30T19:38:44.374Z,90.70
2023-03-30T19:41:14.953Z,112.00
2023-03-30T19:43:45.616Z,81.90
2023-03-30T19:46:13.711Z,90.20
2023-03-30T19:48:42.147Z,78.50
2023-03-30T19:51:10.852Z,81.60
2023-03-30T19:53:47.623Z,95.70
2023-03-30T19:56:25.205Z,124.20
2023-03-30T19:58:53.800Z,92.70
2023-03-30T20:01:22.287Z,85.20
2023-03-30T20:03:51.744Z,63.30
2023-03-30T20:06:19.934Z,58.70
2023-03-30T20:08:48.122Z,75.30
2023-03-30T20:11:16.662Z,92.00
2023-03-30T20:13:46.081Z,87.70
2023-03-30T20:16:21.456Z,79.30
2023-03-30T20:18:54.653Z,86.60
2023-03-30T20:21:25.302Z,80.40
2023-03-30T20:23:56.106Z,64.10
2023-03-30T20:26:27.711Z,53.80
2023-03-30T20:28:57.042Z,59.20
2023-03-30T20:31:25.834Z,56.00
2023-03-30T20:33:55.604Z,57.70
2023-03-30T20:38:55.511Z,62.80
2023-03-30T20:41:23.593Z,62.10
2023-03-30T20:43:57.251Z,68.00
2023-03-30T20:46:35.043Z,66.90
2023-03-30T20:49:04.648Z,76.20
2023-03-30T20:51:33.509Z,69.10
2023-03-30T20:54:02.034Z,97.40
2023-03-30T20:56:33.347Z,188.40
2023-03-30T20:59:02.412Z,168.30
2023-03-30T21:01:31.270Z,108.10
2023-03-30T21:04:01.876Z,216.00
2023-03-30T21:06:31.185Z,280.00
2023-03-30T21:09:02.894Z,202.20
2023-03-30T21:11:33.592Z,181.40
2023-03-30T21:14:02.247Z,578.70
2023-03-30T21:16:31.806Z,267.90
2023-03-30T21:19:00.996Z,100.90
2023-03-30T21:21:31.498Z,87.90
2023-03-30T21:24:01.876Z,330.90
2023-03-30T21:26:30.500Z,161.30
2023-03-30T21:28:58.804Z,105.00
2023-03-30T21:31:28.530Z,93.90
2023-03-30T21:33:57.662Z,77.30
2023-03-30T21:36:25.815Z,63.40
2023-03-30T21:38:56.127Z,72.70
2023-03-30T21:41:26.355Z,71.60
2023-03-30T21:46:23.911Z,54.30
2023-03-30T21:48:55.884Z,40.70
2023-03-30T21:51:31.582Z,39.50
2023-03-30T21:54:01.515Z,53.30
2023-03-30T21:56:30.281Z,62.60
2023-03-30T21:58:58.829Z,66.80
2023-03-30T22:01:27.265Z,100.10
2023-03-30T22:03:55.921Z,69.20
2023-03-30T22:06:24.941Z,75.20
2023-03-30T22:08:53.434Z,56.80
2023-03-30T22:11:23.219Z,72.10
2023-03-30T22:16:22.957Z,63.90
2023-03-30T22:18:56.397Z,80.60
2023-03-30T22:21:26.147Z,87.90
2023-03-30T22:23:54.950Z,72.40
2023-03-30T22:26:23.063Z,62.40
2023-03-30T22:28:51.381Z,89.00
2023-03-30T22:31:23.444Z,96.10
2023-03-30T22:33:53.368Z,76.80
2023-03-30T22:36:26.438Z,100.30
2023-03-30T22:38:57.499Z,101.70
2023-03-30T22:41:26.697Z,178.50
2023-03-30T22:43:56.924Z,141.90
2023-03-30T22:46:26.306Z,116.10
2023-03-30T22:48:56.004Z,79.10
2023-03-30T22:53:58.323Z,80.10
2023-03-30T22:56:32.191Z,70.40
2023-03-30T22:59:01.432Z,81.40
2023-03-30T23:01:32.418Z,86.50
2023-03-30T23:04:05.085Z,71.90
2023-03-30T23:09:03.946Z,67.70
2023-03-30T23:11:34.477Z,69.40
2023-03-30T23:14:05.463Z,65.50
2023-03-30T23:16:37.639Z,73.10
2023-03-30T23:19:07.415Z,49.70
2023-03-30T23:21:36.840Z,43.80
2023-03-30T23:24:11.367Z,70.40
2023-03-30T23:26:41.369Z,65.30
2023-03-30T23:29:09.380Z,68.10
2023-03-30T23:31:38.268Z,66.30
2023-03-30T23:34:08.574Z,84.00
2023-03-30T23:36:37.731Z,78.90
2023-03-30T23:39:06.065Z,72.30
2023-03-30T23:41:34.528Z,77.90
2023-03-30T23:44:02.552Z,84.30
2023-03-30T23:46:30.978Z,81.80
2023-03-30T23:48:59.406Z,67.40
2023-03-30T23:51:27.982Z,75.90
2023-03-30T23:54:00.179Z,79.70
2023-03-30T23:56:32.175Z,74.50
2023-03-30T23:59:00.694Z,85.10
